createdAt,value
2022-08-17T00:00:51.668Z,983.01
2022-08-17T00:01:52.684Z,983.01
2022-08-17T00:02:43.075Z,983.00
2022-08-17T00:03:41.744Z,983.01
2022-08-17T00:04:41.715Z,983.01
2022-08-17T00:05:41.711Z,983.03
2022-08-17T00:06:41.693Z,983.04
2022-08-17T00:07:41.708Z,983.05
2022-08-17T00:08:41.705Z,983.06
2022-08-17T00:09:41.697Z,983.07
2022-08-17T00:10:41.669Z,983.08
2022-08-17T00:11:41.658Z,983.08
2022-08-17T00:12:44.652Z,983.10
2022-08-17T00:13:41.645Z,983.11
2022-08-17T00:14:41.655Z,983.12
2022-08-17T00:15:41.656Z,983.12
2022-08-17T00:16:56.408Z,983.12
2022-08-17T00:17:42.624Z,983.12
2022-08-17T00:19:01.662Z,983.12
2022-08-17T00:19:42.641Z,983.10
2022-08-17T00:20:41.642Z,983.09
2022-08-17T00:22:31.731Z,983.08
2022-08-17T00:22:42.565Z,983.07
2022-08-17T00:23:44.510Z,983.07
2022-08-17T00:24:42.598Z,983.08
2022-08-17T00:25:41.544Z,983.08
2022-08-17T00:26:45.052Z,983.09
2022-08-17T00:27:41.578Z,983.10
2022-08-17T00:28:41.519Z,983.09
2022-08-17T00:29:41.514Z,983.08
2022-08-17T00:30:52.922Z,983.06
2022-08-17T00:31:42.515Z,983.03
2022-08-17T00:33:15.647Z,983.02
2022-08-17T00:33:42.489Z,983.01
2022-08-17T00:34:41.476Z,983.00
2022-08-17T00:35:41.488Z,983.00
2022-08-17T00:36:41.457Z,983.00
2022-08-17T00:37:41.445Z,982.99
2022-08-17T00:38:41.434Z,982.99
2022-08-17T00:39:41.454Z,982.99
2022-08-17T00:40:44.817Z,983.00
2022-08-17T00:41:42.650Z,983.00
2022-08-17T00:42:41.401Z,983.00
2022-08-17T00:43:41.394Z,982.99
2022-08-17T00:44:41.401Z,983.00
2022-08-17T00:45:41.386Z,983.01
2022-08-17T00:46:41.379Z,983.02
2022-08-17T00:47:41.393Z,983.03
2022-08-17T00:48:41.365Z,983.04
2022-08-17T00:49:41.353Z,983.05
2022-08-17T00:50:41.353Z,983.05
2022-08-17T00:51:41.343Z,983.05
2022-08-17T00:52:41.389Z,983.04
2022-08-17T00:53:41.320Z,983.03
2022-08-17T00:54:42.294Z,983.02
2022-08-17T00:55:41.318Z,983.01
2022-08-17T00:56:41.299Z,983.00
2022-08-17T00:57:41.290Z,982.98
2022-08-17T00:58:41.307Z,982.96
2022-08-17T00:59:41.265Z,982.95
2022-08-17T01:00:41.324Z,982.94
2022-08-17T01:01:41.301Z,982.94
2022-08-17T01:02:42.211Z,982.94
2022-08-17T01:03:41.236Z,982.95
2022-08-17T01:04:41.251Z,982.95
2022-08-17T01:05:42.548Z,982.96
2022-08-17T01:06:41.220Z,982.96
2022-08-17T01:07:41.202Z,982.96
2022-08-17T01:08:41.226Z,982.95
2022-08-17T01:09:41.194Z,982.95
2022-08-17T01:10:59.608Z,982.95
2022-08-17T01:11:42.177Z,982.95
2022-08-17T01:12:41.167Z,982.96
2022-08-17T01:13:41.819Z,982.98
2022-08-17T01:14:41.155Z,982.99
2022-08-17T01:15:41.178Z,983.01
2022-08-17T01:16:42.164Z,983.02
2022-08-17T01:17:41.170Z,983.04
2022-08-17T01:18:41.118Z,983.05
2022-08-17T01:19:41.108Z,983.06
2022-08-17T01:20:47.863Z,983.06
2022-08-17T01:21:42.167Z,983.06
2022-08-17T01:22:41.082Z,983.06
2022-08-17T01:23:41.083Z,983.06
2022-08-17T01:24:41.089Z,983.06
2022-08-17T01:25:41.089Z,983.07
2022-08-17T01:26:41.074Z,983.08
2022-08-17T01:27:41.391Z,983.10
2022-08-17T01:28:54.886Z,983.11
2022-08-17T01:29:42.030Z,983.11
2022-08-17T01:30:58.199Z,983.11
2022-08-17T01:31:42.041Z,983.10
2022-08-17T01:32:40.994Z,983.09
2022-08-17T01:33:41.031Z,983.07
2022-08-17T01:34:42.759Z,983.06
2022-08-17T01:35:40.972Z,983.05
2022-08-17T01:36:40.987Z,983.04
2022-08-17T01:37:41.042Z,983.04
2022-08-17T01:38:40.946Z,983.04
2022-08-17T01:39:40.984Z,983.04
2022-08-17T01:40:40.999Z,983.05
2022-08-17T01:41:40.933Z,983.06
2022-08-17T01:42:40.947Z,983.06
2022-08-17T01:43:40.934Z,983.07
2022-08-17T01:44:40.914Z,983.07
2022-08-17T01:45:41.773Z,983.08
2022-08-17T01:46:40.893Z,983.10
2022-08-17T01:47:41.005Z,983.10
2022-08-17T01:48:40.910Z,983.10
2022-08-17T01:49:40.881Z,983.11
2022-08-17T01:50:40.857Z,983.10
2022-08-17T01:51:40.847Z,983.09
2022-08-17T01:52:40.841Z,983.07
2022-08-17T01:53:40.826Z,983.06
2022-08-17T01:54:40.837Z,983.05
2022-08-17T01:55:40.869Z,983.04
2022-08-17T01:56:40.832Z,983.04
2022-08-17T01:57:40.800Z,983.04
2022-08-17T01:58:40.791Z,983.04
2022-08-17T01:59:40.775Z,983.05
2022-08-17T02:00:47.815Z,983.05
2022-08-17T02:01:41.856Z,983.04
2022-08-17T02:02:40.758Z,983.04
2022-08-17T02:03:40.805Z,983.03
2022-08-17T02:04:41.750Z,983.03
2022-08-17T02:05:40.737Z,983.03
2022-08-17T02:06:45.191Z,983.03
2022-08-17T02:07:59.500Z,983.03
2022-08-17T02:09:03.245Z,983.03
2022-08-17T02:09:42.190Z,983.02
2022-08-17T02:10:40.689Z,983.02
2022-08-17T02:11:41.681Z,983.01
2022-08-17T02:12:40.675Z,983.02
2022-08-17T02:13:40.729Z,983.03
2022-08-17T02:14:40.668Z,983.04
2022-08-17T02:15:40.639Z,983.06
2022-08-17T02:16:40.639Z,983.07
2022-08-17T02:17:40.630Z,983.07
2022-08-17T02:18:40.637Z,983.06
2022-08-17T02:19:40.646Z,983.06
2022-08-17T02:20:42.001Z,983.06
2022-08-17T02:21:40.602Z,983.06
2022-08-17T02:22:40.596Z,983.07
2022-08-17T02:23:40.596Z,983.08
2022-08-17T02:25:00.214Z,983.09
2022-08-17T02:25:41.587Z,983.10
2022-08-17T02:26:40.564Z,983.11
2022-08-17T02:27:40.549Z,983.12
2022-08-17T02:28:40.548Z,983.12
2022-08-17T02:29:40.573Z,983.13
2022-08-17T02:31:00.335Z,983.13
2022-08-17T02:31:41.525Z,983.12
2022-08-17T02:32:40.507Z,983.12
2022-08-17T02:33:41.585Z,983.11
2022-08-17T02:34:40.521Z,983.11
2022-08-17T02:35:40.518Z,983.12
2022-08-17T02:36:40.490Z,983.13
2022-08-17T02:37:40.470Z,983.14
2022-08-17T02:38:40.470Z,983.15
2022-08-17T02:39:40.547Z,983.16
2022-08-17T02:40:40.498Z,983.16
2022-08-17T02:41:40.435Z,983.15
2022-08-17T02:42:40.428Z,983.15
2022-08-17T02:43:40.414Z,983.14
2022-08-17T02:44:40.450Z,983.13
2022-08-17T02:45:40.408Z,983.12
2022-08-17T02:46:40.417Z,983.12
2022-08-17T02:47:40.387Z,983.12
2022-08-17T02:48:40.375Z,983.11
2022-08-17T02:49:40.364Z,983.10
2022-08-17T02:50:40.364Z,983.08
2022-08-17T02:51:40.354Z,983.06
2022-08-17T02:52:42.742Z,983.05
2022-08-17T02:53:40.339Z,983.04
2022-08-17T02:54:42.414Z,983.04
2022-08-17T02:55:40.317Z,983.03
2022-08-17T02:56:40.310Z,983.03
2022-08-17T02:57:40.299Z,983.02
2022-08-17T02:58:40.316Z,983.01
2022-08-17T02:59:41.630Z,983.00
2022-08-17T03:00:40.290Z,982.99
2022-08-17T03:01:40.277Z,982.98
2022-08-17T03:02:40.261Z,982.97
2022-08-17T03:03:40.285Z,982.97
2022-08-17T03:04:40.290Z,982.97
2022-08-17T03:05:40.232Z,982.96
2022-08-17T03:06:40.226Z,982.96
2022-08-17T03:07:40.207Z,982.95
2022-08-17T03:08:40.212Z,982.95
2022-08-17T03:09:40.209Z,982.95
2022-08-17T03:10:40.180Z,982.94
2022-08-17T03:11:40.201Z,982.94
2022-08-17T03:12:40.187Z,982.93
2022-08-17T03:13:40.159Z,982.92
2022-08-17T03:14:41.793Z,982.91
2022-08-17T03:15:40.725Z,982.89
2022-08-17T03:16:40.141Z,982.88
2022-08-17T03:17:40.159Z,982.88
2022-08-17T03:18:40.124Z,982.89
2022-08-17T03:19:42.889Z,982.90
2022-08-17T03:20:40.133Z,982.92
2022-08-17T03:21:40.105Z,982.93
2022-08-17T03:22:40.084Z,982.93
2022-08-17T03:23:40.080Z,982.93
2022-08-17T03:24:40.084Z,982.93
2022-08-17T03:25:40.405Z,982.93
2022-08-17T03:26:40.160Z,982.92
2022-08-17T03:27:40.050Z,982.91
2022-08-17T03:28:40.041Z,982.89
2022-08-17T03:29:40.022Z,982.89
2022-08-17T03:30:40.055Z,982.88
2022-08-17T03:31:40.010Z,982.88
2022-08-17T03:32:40.046Z,982.88
2022-08-17T03:33:39.993Z,982.88
2022-08-17T03:34:39.990Z,982.88
2022-08-17T03:35:39.996Z,982.87
2022-08-17T03:36:39.964Z,982.87
2022-08-17T03:37:39.969Z,982.87
2022-08-17T03:38:40.049Z,982.87
2022-08-17T03:39:39.984Z,982.86
2022-08-17T03:40:57.313Z,982.87
2022-08-17T03:41:40.916Z,982.87
2022-08-17T03:42:39.921Z,982.86
2022-08-17T03:43:39.923Z,982.86
2022-08-17T03:44:39.915Z,982.86
2022-08-17T03:45:39.922Z,982.84
2022-08-17T03:46:39.887Z,982.83
2022-08-17T03:47:39.876Z,982.82
2022-08-17T03:48:39.931Z,982.81
2022-08-17T03:49:39.855Z,982.82
2022-08-17T03:50:39.876Z,982.83
2022-08-17T03:51:39.845Z,982.86
2022-08-17T03:52:39.835Z,982.89
2022-08-17T03:53:39.822Z,982.91
2022-08-17T03:54:39.833Z,982.91
2022-08-17T03:55:39.801Z,982.91
2022-08-17T03:56:39.809Z,982.90
2022-08-17T03:57:39.781Z,982.90
2022-08-17T03:58:39.773Z,982.91
2022-08-17T03:59:39.814Z,982.92
2022-08-17T04:00:39.925Z,982.93
2022-08-17T04:01:39.797Z,982.93
2022-08-17T04:02:39.755Z,982.93
2022-08-17T04:03:39.733Z,982.94
2022-08-17T04:04:39.728Z,982.94
2022-08-17T04:05:39.749Z,982.96
2022-08-17T04:06:39.707Z,982.97
2022-08-17T04:07:39.691Z,982.99
2022-08-17T04:08:39.712Z,983.01
2022-08-17T04:09:39.676Z,983.03
2022-08-17T04:10:41.937Z,983.04
2022-08-17T04:11:40.670Z,983.05
2022-08-17T04:12:39.662Z,983.06
2022-08-17T04:13:39.648Z,983.09
2022-08-17T04:14:53.698Z,983.10
2022-08-17T04:15:40.661Z,983.11
2022-08-17T04:16:39.636Z,983.12
2022-08-17T04:17:39.620Z,983.12
2022-08-17T04:18:39.611Z,983.13
2022-08-17T04:19:39.600Z,983.14
2022-08-17T04:20:39.599Z,983.14
2022-08-17T04:21:39.631Z,983.16
2022-08-17T04:22:39.577Z,983.17
2022-08-17T04:23:39.575Z,983.19
2022-08-17T04:24:39.557Z,983.21
2022-08-17T04:25:39.553Z,983.21
2022-08-17T04:26:54.071Z,983.21
2022-08-17T04:27:40.549Z,983.21
2022-08-17T04:28:39.534Z,983.21
2022-08-17T04:29:54.335Z,983.22
2022-08-17T04:30:40.546Z,983.22
2022-08-17T04:31:39.499Z,983.23
2022-08-17T04:33:04.467Z,983.23
2022-08-17T04:33:40.528Z,983.23
2022-08-17T04:34:39.472Z,983.22
2022-08-17T04:35:39.462Z,983.21
2022-08-17T04:36:39.455Z,983.20
2022-08-17T04:37:39.449Z,983.20
2022-08-17T04:38:39.463Z,983.21
2022-08-17T04:39:39.507Z,983.21
2022-08-17T04:40:39.421Z,983.21
2022-08-17T04:41:39.405Z,983.21
2022-08-17T04:42:39.429Z,983.21
2022-08-17T04:43:39.448Z,983.20
2022-08-17T04:44:39.389Z,983.20
2022-08-17T04:45:39.408Z,983.21
2022-08-17T04:46:39.382Z,983.23
2022-08-17T04:47:39.396Z,983.25
2022-08-17T04:48:39.390Z,983.26
2022-08-17T04:49:39.362Z,983.26
2022-08-17T04:50:39.341Z,983.26
2022-08-17T04:51:39.353Z,983.26
2022-08-17T04:52:43.166Z,983.27
2022-08-17T04:53:39.365Z,983.28
2022-08-17T04:54:40.169Z,983.30
2022-08-17T04:55:39.300Z,983.30
2022-08-17T04:56:39.297Z,983.31
2022-08-17T04:57:44.542Z,983.30
2022-08-17T04:58:40.302Z,983.31
2022-08-17T04:59:39.277Z,983.32
2022-08-17T05:00:39.271Z,983.33
2022-08-17T05:01:39.410Z,983.34
2022-08-17T05:02:39.237Z,983.35
2022-08-17T05:03:40.246Z,983.37
2022-08-17T05:04:39.235Z,983.39
2022-08-17T05:05:39.214Z,983.40
2022-08-17T05:06:39.209Z,983.41
2022-08-17T05:07:39.226Z,983.41
2022-08-17T05:08:39.183Z,983.42
2022-08-17T05:09:39.194Z,983.43
2022-08-17T05:10:39.168Z,983.43
2022-08-17T05:11:40.161Z,983.44
2022-08-17T05:12:39.154Z,983.44
2022-08-17T05:13:39.170Z,983.44
2022-08-17T05:14:39.148Z,983.44
2022-08-17T05:15:39.165Z,983.45
2022-08-17T05:16:40.124Z,983.46
2022-08-17T05:17:39.131Z,983.46
2022-08-17T05:18:39.169Z,983.47
2022-08-17T05:19:39.137Z,983.46
2022-08-17T05:20:39.087Z,983.47
2022-08-17T05:21:39.099Z,983.46
2022-08-17T05:22:39.063Z,983.46
2022-08-17T05:23:42.696Z,983.46
2022-08-17T05:24:43.731Z,983.46
2022-08-17T05:25:40.107Z,983.46
2022-08-17T05:26:39.047Z,983.45
2022-08-17T05:27:39.057Z,983.45
2022-08-17T05:28:39.097Z,983.43
2022-08-17T05:29:39.076Z,983.42
2022-08-17T05:30:39.007Z,983.41
2022-08-17T05:31:39.013Z,983.42
2022-08-17T05:32:40.487Z,983.41
2022-08-17T05:33:44.312Z,983.42
2022-08-17T05:34:39.992Z,983.41
2022-08-17T05:35:38.967Z,983.41
2022-08-17T05:36:42.894Z,983.41
2022-08-17T05:37:40.025Z,983.38
2022-08-17T05:38:38.951Z,983.37
2022-08-17T05:39:38.985Z,983.35
2022-08-17T05:40:38.913Z,983.34
2022-08-17T05:41:38.917Z,983.33
2022-08-17T05:42:38.921Z,983.33
2022-08-17T05:43:38.892Z,983.33
2022-08-17T05:44:38.900Z,983.32
2022-08-17T05:45:55.305Z,983.32
2022-08-17T05:46:39.867Z,983.32
2022-08-17T05:47:38.922Z,983.32
2022-08-17T05:48:39.964Z,983.32
2022-08-17T05:49:38.901Z,983.32
2022-08-17T05:50:38.850Z,983.32
2022-08-17T05:51:38.858Z,983.31
2022-08-17T05:52:38.815Z,983.31
2022-08-17T05:53:39.217Z,983.31
2022-08-17T05:54:38.799Z,983.30
2022-08-17T05:55:38.847Z,983.29
2022-08-17T05:56:38.783Z,983.30
2022-08-17T05:57:39.604Z,983.31
2022-08-17T05:58:39.768Z,983.32
2022-08-17T05:59:38.766Z,983.33
2022-08-17T06:00:41.769Z,983.32
2022-08-17T06:01:38.839Z,983.31
2022-08-17T06:02:38.735Z,983.30
2022-08-17T06:03:38.758Z,983.28
2022-08-17T06:04:38.727Z,983.26
2022-08-17T06:05:38.753Z,983.23
2022-08-17T06:06:38.710Z,983.20
2022-08-17T06:07:38.731Z,983.18
2022-08-17T06:08:38.710Z,983.17
2022-08-17T06:09:38.698Z,983.17
2022-08-17T06:10:38.697Z,983.16
2022-08-17T06:11:38.669Z,983.17
2022-08-17T06:12:38.654Z,983.19
2022-08-17T06:13:38.653Z,983.18
2022-08-17T06:14:38.639Z,983.19
2022-08-17T06:15:38.662Z,983.18
2022-08-17T06:16:38.613Z,983.17
2022-08-17T06:17:38.605Z,983.15
2022-08-17T06:18:38.599Z,983.14
2022-08-17T06:19:38.922Z,983.14
2022-08-17T06:20:38.608Z,983.14
2022-08-17T06:21:38.571Z,983.15
2022-08-17T06:22:38.563Z,983.15
2022-08-17T06:23:38.578Z,983.15
2022-08-17T06:24:38.562Z,983.14
2022-08-17T06:25:38.594Z,983.12
2022-08-17T06:26:42.927Z,983.11
2022-08-17T06:27:38.525Z,983.07
2022-08-17T06:28:38.541Z,983.06
2022-08-17T06:29:38.518Z,983.05
2022-08-17T06:30:57.573Z,983.04
2022-08-17T06:31:39.517Z,983.03
2022-08-17T06:32:38.486Z,983.03
2022-08-17T06:33:38.512Z,983.04
2022-08-17T06:34:38.505Z,983.05
2022-08-17T06:35:38.466Z,983.05
2022-08-17T06:36:38.471Z,983.07
2022-08-17T06:37:38.460Z,983.08
2022-08-17T06:38:38.878Z,983.08
2022-08-17T06:39:38.448Z,983.09
2022-08-17T06:40:38.474Z,983.08
2022-08-17T06:41:38.411Z,983.07
2022-08-17T06:42:54.619Z,983.05
2022-08-17T06:43:39.435Z,983.03
2022-08-17T06:44:43.198Z,983.01
2022-08-17T06:45:39.380Z,983.00
2022-08-17T06:46:38.363Z,982.98
2022-08-17T06:47:38.371Z,982.98
2022-08-17T06:48:38.342Z,982.98
2022-08-17T06:49:38.363Z,982.97
2022-08-17T06:50:38.333Z,982.99
2022-08-17T06:51:38.336Z,982.98
2022-08-17T06:52:45.494Z,982.98
2022-08-17T06:53:39.316Z,982.99
2022-08-17T06:54:38.312Z,982.99
2022-08-17T06:55:38.497Z,983.00
2022-08-17T06:56:53.996Z,983.00
2022-08-17T06:57:39.290Z,982.99
2022-08-17T06:58:38.902Z,982.97
2022-08-17T06:59:55.362Z,982.98
2022-08-17T07:00:39.401Z,983.00
2022-08-17T07:01:38.295Z,983.02
2022-08-17T07:02:52.680Z,983.03
2022-08-17T07:03:39.252Z,983.04
2022-08-17T07:04:38.216Z,983.04
2022-08-17T07:05:38.764Z,983.03
2022-08-17T07:06:38.227Z,983.02
2022-08-17T07:07:38.239Z,983.04
2022-08-17T07:08:38.275Z,983.03
2022-08-17T07:09:38.404Z,983.05
2022-08-17T07:10:38.172Z,983.06
2022-08-17T07:11:38.176Z,983.08
2022-08-17T07:12:38.157Z,983.08
2022-08-17T07:13:38.161Z,983.07
2022-08-17T07:14:38.144Z,983.06
2022-08-17T07:15:38.154Z,983.06
2022-08-17T07:16:38.153Z,983.06
2022-08-17T07:17:48.002Z,983.06
2022-08-17T07:18:39.129Z,983.05
2022-08-17T07:19:38.091Z,983.05
2022-08-17T07:20:38.219Z,983.05
2022-08-17T07:21:38.121Z,983.03
2022-08-17T07:22:55.313Z,983.01
2022-08-17T07:23:39.078Z,983.00
2022-08-17T07:24:38.103Z,983.01
2022-08-17T07:25:38.064Z,983.00
2022-08-17T07:26:38.039Z,983.01
2022-08-17T07:27:38.067Z,983.02
2022-08-17T07:28:38.025Z,983.03
2022-08-17T07:29:38.024Z,983.03
2022-08-17T07:30:47.352Z,983.05
2022-08-17T07:31:39.014Z,983.06
2022-08-17T07:32:37.988Z,983.08
2022-08-17T07:33:38.053Z,983.08
2022-08-17T07:34:37.985Z,983.09
2022-08-17T07:35:40.981Z,983.08
2022-08-17T07:36:38.980Z,983.09
2022-08-17T07:37:37.991Z,983.09
2022-08-17T07:38:37.955Z,983.12
2022-08-17T07:40:14.803Z,983.14
2022-08-17T07:40:38.985Z,983.15
2022-08-17T07:41:57.982Z,983.15
2022-08-17T07:42:41.850Z,983.16
2022-08-17T07:43:38.927Z,983.16
2022-08-17T07:44:37.912Z,983.17
2022-08-17T07:45:37.934Z,983.17
2022-08-17T07:46:37.934Z,983.17
2022-08-17T07:47:37.893Z,983.18
2022-08-17T07:48:37.889Z,983.19
2022-08-17T07:49:37.885Z,983.19
2022-08-17T07:50:37.878Z,983.20
2022-08-17T07:51:37.976Z,983.20
2022-08-17T07:52:47.624Z,983.20
2022-08-17T07:53:38.861Z,983.20
2022-08-17T07:54:37.831Z,983.19
2022-08-17T07:55:38.061Z,983.19
2022-08-17T07:56:37.831Z,983.17
2022-08-17T07:57:38.692Z,983.17
2022-08-17T07:58:37.799Z,983.17
2022-08-17T07:59:37.792Z,983.13
2022-08-17T08:00:37.857Z,983.13
2022-08-17T08:01:41.029Z,983.11
2022-08-17T08:02:37.773Z,983.11
2022-08-17T08:03:37.877Z,983.10
2022-08-17T08:04:59.014Z,983.08
2022-08-17T08:05:50.645Z,983.09
2022-08-17T08:06:38.758Z,983.08
2022-08-17T08:07:37.783Z,983.07
2022-08-17T08:08:37.742Z,983.04
2022-08-17T08:09:37.736Z,983.03
2022-08-17T08:10:38.674Z,983.03
2022-08-17T08:11:43.749Z,983.03
2022-08-17T08:12:38.678Z,983.03
2022-08-17T08:13:38.267Z,983.06
2022-08-17T08:14:37.836Z,983.09
2022-08-17T08:15:37.657Z,983.10
2022-08-17T08:16:37.635Z,983.12
2022-08-17T08:17:37.913Z,983.13
2022-08-17T08:18:53.721Z,983.13
2022-08-17T08:19:38.719Z,983.14
2022-08-17T08:20:51.870Z,983.13
2022-08-17T08:21:38.613Z,983.14
2022-08-17T08:22:37.729Z,983.15
2022-08-17T08:23:37.587Z,983.15
2022-08-17T08:24:37.582Z,983.15
2022-08-17T08:25:37.590Z,983.16
2022-08-17T08:26:37.674Z,983.17
2022-08-17T08:27:37.555Z,983.17
2022-08-17T08:28:37.543Z,983.16
2022-08-17T08:29:37.535Z,983.16
2022-08-17T08:30:39.086Z,983.14
2022-08-17T08:31:42.215Z,983.12
2022-08-17T08:32:38.467Z,983.12
2022-08-17T08:33:37.507Z,983.12
2022-08-17T08:34:55.877Z,983.09
2022-08-17T08:35:38.484Z,983.08
2022-08-17T08:36:56.822Z,983.07
2022-08-17T08:37:42.710Z,983.08
2022-08-17T08:38:37.462Z,983.07
2022-08-17T08:39:37.513Z,983.08
2022-08-17T08:40:37.442Z,983.09
2022-08-17T08:41:37.615Z,983.10
2022-08-17T08:42:38.207Z,983.11
2022-08-17T08:43:37.767Z,983.12
2022-08-17T08:44:59.797Z,983.12
2022-08-17T08:45:38.402Z,983.12
2022-08-17T08:46:44.418Z,983.13
2022-08-17T08:47:37.411Z,983.15
2022-08-17T08:48:53.323Z,983.16
2022-08-17T08:50:03.007Z,983.17
2022-08-17T08:50:38.773Z,983.19
2022-08-17T08:51:37.369Z,983.21
2022-08-17T08:52:37.347Z,983.23
2022-08-17T08:53:37.357Z,983.23
2022-08-17T08:54:37.327Z,983.23
2022-08-17T08:55:37.353Z,983.23
2022-08-17T08:56:37.312Z,983.22
2022-08-17T08:57:37.299Z,983.20
2022-08-17T08:58:41.588Z,983.16
2022-08-17T08:59:42.090Z,983.14
2022-08-17T09:00:38.282Z,983.11
2022-08-17T09:01:37.323Z,983.11
2022-08-17T09:02:37.264Z,983.11
2022-08-17T09:03:52.188Z,983.11
2022-08-17T09:05:10.273Z,983.11
2022-08-17T09:05:38.248Z,983.12
2022-08-17T09:06:39.026Z,983.11
2022-08-17T09:07:37.238Z,983.10
2022-08-17T09:08:37.223Z,983.09
2022-08-17T09:09:37.270Z,983.06
2022-08-17T09:10:37.213Z,983.03
2022-08-17T09:12:02.320Z,983.01
2022-08-17T09:12:38.187Z,982.99
2022-08-17T09:13:37.183Z,982.98
2022-08-17T09:14:47.082Z,982.98
2022-08-17T09:15:38.183Z,982.98
2022-08-17T09:16:37.190Z,982.97
2022-08-17T09:17:37.261Z,982.95
2022-08-17T09:19:03.543Z,982.91
2022-08-17T09:19:38.138Z,982.88
2022-08-17T09:20:37.119Z,982.86
2022-08-17T09:21:37.138Z,982.85
2022-08-17T09:22:38.109Z,982.86
2022-08-17T09:23:37.096Z,982.87
2022-08-17T09:24:37.321Z,982.89
2022-08-17T09:25:37.087Z,982.90
2022-08-17T09:26:37.090Z,982.88
2022-08-17T09:27:37.111Z,982.87
2022-08-17T09:28:37.094Z,982.87
2022-08-17T09:29:37.772Z,982.86
2022-08-17T09:30:37.126Z,982.86
2022-08-17T09:31:49.110Z,982.84
2022-08-17T09:32:38.137Z,982.83
2022-08-17T09:33:37.015Z,982.81
2022-08-17T09:34:37.013Z,982.80
2022-08-17T09:35:37.551Z,982.81
2022-08-17T09:36:37.022Z,982.80
2022-08-17T09:37:37.136Z,982.79
2022-08-17T09:38:36.977Z,982.78
2022-08-17T09:39:37.040Z,982.76
2022-08-17T09:40:37.390Z,982.76
2022-08-17T09:41:36.961Z,982.75
2022-08-17T09:42:36.957Z,982.76
2022-08-17T09:43:36.973Z,982.76
2022-08-17T09:44:36.932Z,982.77
2022-08-17T09:45:36.929Z,982.77
2022-08-17T09:46:37.465Z,982.76
2022-08-17T09:47:36.907Z,982.77
2022-08-17T09:48:36.921Z,982.76
2022-08-17T09:49:37.119Z,982.76
2022-08-17T09:51:01.598Z,982.76
2022-08-17T09:51:38.336Z,982.77
2022-08-17T09:52:36.865Z,982.77
2022-08-17T09:53:37.183Z,982.78
2022-08-17T09:54:39.560Z,982.79
2022-08-17T09:55:37.163Z,982.78
2022-08-17T09:56:36.848Z,982.78
2022-08-17T09:57:36.870Z,982.78
2022-08-17T09:58:37.104Z,982.78
2022-08-17T09:59:38.460Z,982.78
2022-08-17T10:00:36.821Z,982.78
2022-08-17T10:01:36.977Z,982.81
2022-08-17T10:02:36.805Z,982.81
2022-08-17T10:03:36.792Z,982.81
2022-08-17T10:04:36.823Z,982.83
2022-08-17T10:05:36.774Z,982.83
2022-08-17T10:06:36.762Z,982.84
2022-08-17T10:07:37.186Z,982.84
2022-08-17T10:08:36.965Z,982.84
2022-08-17T10:09:36.812Z,982.84
2022-08-17T10:10:36.985Z,982.86
2022-08-17T10:11:36.776Z,982.86
2022-08-17T10:12:38.182Z,982.84
2022-08-17T10:13:36.711Z,982.85
2022-08-17T10:14:44.187Z,982.86
2022-08-17T10:15:37.886Z,982.85
2022-08-17T10:16:36.688Z,982.86
2022-08-17T10:17:36.701Z,982.86
2022-08-17T10:18:38.275Z,982.85
2022-08-17T10:19:36.672Z,982.86
2022-08-17T10:20:36.663Z,982.85
2022-08-17T10:21:36.695Z,982.85
2022-08-17T10:22:38.099Z,982.86
2022-08-17T10:23:36.635Z,982.86
2022-08-17T10:24:36.657Z,982.87
2022-08-17T10:25:54.106Z,982.86
2022-08-17T10:26:40.321Z,982.86
2022-08-17T10:27:37.613Z,982.86
2022-08-17T10:28:36.601Z,982.85
2022-08-17T10:29:47.388Z,982.84
2022-08-17T10:30:37.581Z,982.84
2022-08-17T10:31:36.599Z,982.84
2022-08-17T10:32:36.826Z,982.85
2022-08-17T10:33:36.586Z,982.86
2022-08-17T10:34:38.831Z,982.87
2022-08-17T10:35:37.540Z,982.88
2022-08-17T10:36:36.543Z,982.89
2022-08-17T10:37:36.569Z,982.88
2022-08-17T10:38:36.551Z,982.88
2022-08-17T10:39:36.594Z,982.87
2022-08-17T10:40:37.524Z,982.87
2022-08-17T10:41:40.177Z,982.85
2022-08-17T10:42:36.506Z,982.84
2022-08-17T10:43:36.545Z,982.85
2022-08-17T10:44:37.094Z,982.84
2022-08-17T10:45:36.473Z,982.86
2022-08-17T10:46:36.454Z,982.89
2022-08-17T10:47:54.707Z,982.92
2022-08-17T10:48:37.515Z,982.95
2022-08-17T10:49:36.524Z,982.99
2022-08-17T10:50:36.460Z,983.02
2022-08-17T10:51:36.422Z,983.05
2022-08-17T10:52:36.421Z,983.08
2022-08-17T10:53:36.423Z,983.10
2022-08-17T10:54:36.409Z,983.11
2022-08-17T10:55:36.415Z,983.12
2022-08-17T10:56:36.395Z,983.14
2022-08-17T10:57:36.378Z,983.16
2022-08-17T10:58:36.371Z,983.17
2022-08-17T10:59:36.377Z,983.16
2022-08-17T11:00:36.393Z,983.16
2022-08-17T11:01:36.381Z,983.16
2022-08-17T11:02:36.366Z,983.15
2022-08-17T11:03:37.310Z,983.13
2022-08-17T11:04:36.344Z,983.14
2022-08-17T11:05:40.196Z,983.14
2022-08-17T11:06:37.302Z,983.16
2022-08-17T11:07:36.310Z,983.15
2022-08-17T11:08:36.328Z,983.15
2022-08-17T11:09:36.279Z,983.16
2022-08-17T11:10:36.281Z,983.16
2022-08-17T11:11:36.295Z,983.15
2022-08-17T11:12:36.258Z,983.14
2022-08-17T11:13:36.312Z,983.14
2022-08-17T11:14:36.255Z,983.13
2022-08-17T11:15:36.226Z,983.14
2022-08-17T11:16:36.271Z,983.15
2022-08-17T11:17:36.225Z,983.17
2022-08-17T11:18:36.212Z,983.17
2022-08-17T11:19:36.240Z,983.18
2022-08-17T11:20:36.192Z,983.17
2022-08-17T11:21:36.206Z,983.19
2022-08-17T11:22:36.174Z,983.17
2022-08-17T11:23:36.167Z,983.18
2022-08-17T11:24:36.219Z,983.18
2022-08-17T11:25:36.159Z,983.18
2022-08-17T11:26:36.146Z,983.19
2022-08-17T11:27:36.220Z,983.19
2022-08-17T11:28:36.126Z,983.19
2022-08-17T11:29:36.119Z,983.19
2022-08-17T11:30:36.131Z,983.19
2022-08-17T11:31:37.872Z,983.19
2022-08-17T11:32:36.213Z,983.19
2022-08-17T11:33:36.740Z,983.19
2022-08-17T11:34:36.089Z,983.17
2022-08-17T11:35:36.108Z,983.16
2022-08-17T11:36:36.061Z,983.16
2022-08-17T11:37:36.052Z,983.14
2022-08-17T11:38:36.077Z,983.13
2022-08-17T11:39:36.077Z,983.12
2022-08-17T11:40:36.102Z,983.12
2022-08-17T11:41:36.074Z,983.10
2022-08-17T11:42:36.020Z,983.11
2022-08-17T11:43:42.301Z,983.10
2022-08-17T11:44:37.043Z,983.11
2022-08-17T11:45:35.990Z,983.12
2022-08-17T11:46:35.994Z,983.12
2022-08-17T11:47:36.013Z,983.12
2022-08-17T11:48:36.229Z,983.12
2022-08-17T11:49:36.064Z,983.12
2022-08-17T11:50:35.975Z,983.11
2022-08-17T11:51:35.943Z,983.11
2022-08-17T11:52:35.984Z,983.10
2022-08-17T11:53:35.929Z,983.10
2022-08-17T11:54:35.918Z,983.10
2022-08-17T11:55:39.612Z,983.08
2022-08-17T11:56:35.923Z,983.09
2022-08-17T11:57:35.933Z,983.10
2022-08-17T11:58:35.885Z,983.13
2022-08-17T11:59:35.896Z,983.11
2022-08-17T12:00:35.921Z,983.12
2022-08-17T12:01:35.902Z,983.12
2022-08-17T12:02:35.896Z,983.13
2022-08-17T12:03:35.858Z,983.14
2022-08-17T12:04:35.988Z,983.15
2022-08-17T12:05:35.829Z,983.15
2022-08-17T12:06:35.827Z,983.15
2022-08-17T12:07:35.926Z,983.16
2022-08-17T12:08:35.831Z,983.18
2022-08-17T12:09:35.797Z,983.18
2022-08-17T12:10:35.827Z,983.16
2022-08-17T12:11:58.767Z,983.18
2022-08-17T12:12:36.770Z,983.18
2022-08-17T12:13:39.358Z,983.20
2022-08-17T12:15:08.119Z,983.20
2022-08-17T12:15:36.754Z,983.21
2022-08-17T12:16:35.766Z,983.22
2022-08-17T12:17:40.576Z,983.24
2022-08-17T12:18:36.732Z,983.24
2022-08-17T12:19:35.741Z,983.26
2022-08-17T12:20:35.796Z,983.27
2022-08-17T12:21:35.720Z,983.27
2022-08-17T12:22:35.724Z,983.28
2022-08-17T12:23:35.762Z,983.29
2022-08-17T12:24:35.721Z,983.29
2022-08-17T12:25:35.764Z,983.30
2022-08-17T12:26:35.671Z,983.31
2022-08-17T12:27:46.241Z,983.31
2022-08-17T12:28:36.680Z,983.31